Aberdeen, OH

6:34 PM EDT on March 26, 2015 (GMT -0400)
Cincinnati-Northern KY International | | Change Station
CLOSE
Current Station
Airport
Location: Covington,
Elevation: 876 ft
Nearby Weather Stations

Elev 876 ft 39.04 °N, 84.67 °W | Updated 42 minutes ago

Rain
Rain
43 °F
Feels Like 37 °F
N
12
Wind Variable Wind from NW

Today
High -- | Low -- °F
--% Chance of Precip.
Yesterday
High -- | Low -- °F
Precip. -- in
7:29 AM 7:52 PM
Waxing Crescent, 46% visible
Pressure 29.91 in
Visibility 10.0 miles
Clouds Scattered Clouds 1300 ft
Mostly Cloudy 2100 ft
Overcast 8500 ft
Windchill 37 °F
Dew Point 36 °F
Humidity 76%
Rainfall 0.68 in
Snow Depth Not available.
UV 1 out of 12
Pollen .70 out of 12
Air Quality Not available.
Flu Activity Not available.
METAR KCVG 262152Z 31010KT 10SM SCT013 BKN021 OVC085 06/02 A2990 RMK AO2 SLP126 SCT V FEW T00610022

More Conditions Fewer Conditions

Pressure 29.91 in
Visibility 10.0 miles
Clouds Scattered Clouds 1300 ft
Mostly Cloudy 2100 ft
Overcast 8500 ft
Windchill 37 °F
Dew Point 36 °F
Humidity 76%
Rainfall 0.68 in
Snow Depth Not available.
UV 1 out of 12
Pollen .70 out of 12
Air Quality Not available.
Flu Activity Not available.
METAR KCVG 262152Z 31010KT 10SM SCT013 BKN021 OVC085 06/02 A2990 RMK AO2 SLP126 SCT V FEW T00610022

More Conditions Fewer Conditions

10-Day Weather Forecast

Almanac

Astronomy

Mar. 26, 2015 Rise Set
Actual Time
Civil Twilight
Nautical Twilight
Astronomical Twilight
Moon
Length of Visible Light
Length of Day
Tomorrow will be .
, % of the Moon is Illuminated

Today's Extremes

State Highs State Lows

Community

WunderPhotos

Upload Photos

1,808,628 photos uploaded!

WunderBlogs® & News

Nearby

Air Quality

  Air Quality AQ Index Pollutant
Not available.

Snow Depth

Station Depth Elevation

Earthquake Activity

City Distance Mag. Time & Date
Minimum magnitude displayed is 2.5.

Coastal Water Temperatures

Place Temperature

Stations

Nearby Weather Stations

Station Location Temp. Windchill Dew Point Humidity Wind Precip. Elev Updated Type